createdAt,value
2022-10-04T00:02:34.144Z,3.20
2022-10-04T00:24:24.208Z,2.80
2022-10-04T00:46:15.204Z,3.40
2022-10-04T01:08:09.224Z,3.10
2022-10-04T01:29:55.053Z,3.10
2022-10-04T01:51:48.049Z,2.50
2022-10-04T02:13:38.584Z,4.20
2022-10-04T02:35:25.741Z,2.90
2022-10-04T02:57:18.114Z,2.80
2022-10-04T03:19:04.823Z,3.30
2022-10-04T03:40:56.272Z,3.00
2022-10-04T04:02:48.573Z,3.20
2022-10-04T04:24:34.441Z,2.90
2022-10-04T04:46:27.530Z,3.50
2022-10-04T05:30:07.624Z,3.70
2022-10-04T05:51:57.009Z,3.20
2022-10-04T06:14:01.247Z,3.40
2022-10-04T06:36:14.059Z,3.10
2022-10-04T06:58:27.147Z,2.90
2022-10-04T07:20:22.786Z,3.10
2022-10-04T07:42:21.440Z,4.10
2022-10-04T08:04:20.383Z,3.10
2022-10-04T08:26:23.364Z,2.20
2022-10-04T08:48:40.559Z,2.20
2022-10-04T09:10:39.918Z,2.60
2022-10-04T09:33:07.655Z,2.20
2022-10-04T09:55:24.302Z,2.10
2022-10-04T10:17:20.829Z,1.90
2022-10-04T10:39:38.036Z,2.00
2022-10-04T11:01:48.545Z,2.20
2022-10-04T11:24:02.645Z,2.30
2022-10-04T11:46:11.085Z,2.20
2022-10-04T12:08:13.703Z,1.80
2022-10-04T12:30:27.641Z,2.00
2022-10-04T12:52:20.224Z,2.20
2022-10-04T13:14:39.642Z,1.80
2022-10-04T13:36:37.870Z,1.80
2022-10-04T13:58:36.734Z,2.20
2022-10-04T14:21:19.178Z,1.70
2022-10-04T14:43:31.964Z,2.70
2022-10-04T15:05:45.995Z,2.40
2022-10-04T15:27:54.665Z,2.70
2022-10-04T15:49:58.240Z,2.80
2022-10-04T16:12:07.374Z,2.70
2022-10-04T16:34:03.350Z,3.30
2022-10-04T16:55:57.903Z,2.70
2022-10-04T17:17:51.879Z,3.00
2022-10-04T17:39:46.048Z,5.00
2022-10-04T18:01:39.048Z,4.40
2022-10-04T18:23:28.333Z,5.90
2022-10-04T18:45:25.634Z,6.10
2022-10-04T19:07:14.960Z,5.60
2022-10-04T19:29:11.002Z,6.60
2022-10-04T19:51:04.554Z,8.50
2022-10-04T20:13:16.959Z,8.40
2022-10-04T20:35:04.324Z,10.00
2022-10-04T20:56:56.216Z,8.50
2022-10-04T21:18:42.200Z,11.90
2022-10-04T21:40:31.024Z,11.70
2022-10-04T22:02:16.928Z,12.60
2022-10-04T22:24:04.121Z,10.00
2022-10-04T22:45:50.081Z,11.60
2022-10-04T23:07:38.339Z,10.80
2022-10-04T23:29:28.870Z,12.10
2022-10-04T23:51:17.794Z,9.90
